sensor_id;sensor_type;location;lat;lon;timestamp;P1;durP1;ratioP1;P2;durP2;ratioP2
45932;SDS011;51011;46.790;17.184;2022-07-25T00:02:15;6.70;;;6.07;;
45932;SDS011;51011;46.790;17.184;2022-07-25T00:04:40;6.65;;;6.05;;
45932;SDS011;51011;46.790;17.184;2022-07-25T00:07:06;6.75;;;6.07;;
45932;SDS011;51011;46.790;17.184;2022-07-25T00:09:32;7.53;;;6.10;;
45932;SDS011;51011;46.790;17.184;2022-07-25T00:11:58;6.70;;;6.00;;
45932;SDS011;51011;46.790;17.184;2022-07-25T00:14:23;9.07;;;5.88;;
45932;SDS011;51011;46.790;17.184;2022-07-25T00:16:49;6.47;;;5.88;;
45932;SDS011;51011;46.790;17.184;2022-07-25T00:19:14;6.70;;;5.78;;
45932;SDS011;51011;46.790;17.184;2022-07-25T00:21:40;7.88;;;6.35;;
45932;SDS011;51011;46.790;17.184;2022-07-25T00:24:05;6.78;;;6.07;;
45932;SDS011;51011;46.790;17.184;2022-07-25T00:26:31;6.95;;;6.10;;
45932;SDS011;51011;46.790;17.184;2022-07-25T00:28:57;8.73;;;6.15;;
45932;SDS011;51011;46.790;17.184;2022-07-25T00:31:23;6.13;;;5.53;;
45932;SDS011;51011;46.790;17.184;2022-07-25T00:33:48;7.28;;;6.00;;
45932;SDS011;51011;46.790;17.184;2022-07-25T00:36:14;6.90;;;5.85;;
45932;SDS011;51011;46.790;17.184;2022-07-25T00:38:39;8.18;;;6.28;;
45932;SDS011;51011;46.790;17.184;2022-07-25T00:41:05;7.15;;;5.70;;
45932;SDS011;51011;46.790;17.184;2022-07-25T00:43:30;7.60;;;6.30;;
45932;SDS011;51011;46.790;17.184;2022-07-25T00:45:56;6.30;;;5.70;;
45932;SDS011;51011;46.790;17.184;2022-07-25T00:48:23;6.90;;;6.20;;
45932;SDS011;51011;46.790;17.184;2022-07-25T00:50:49;7.10;;;6.47;;
45932;SDS011;51011;46.790;17.184;2022-07-25T00:53:14;6.72;;;5.60;;
45932;SDS011;51011;46.790;17.184;2022-07-25T00:55:40;6.13;;;5.53;;
45932;SDS011;51011;46.790;17.184;2022-07-25T00:58:06;6.63;;;5.43;;
45932;SDS011;51011;46.790;17.184;2022-07-25T01:00:31;6.07;;;5.47;;
45932;SDS011;51011;46.790;17.184;2022-07-25T01:02:57;6.00;;;5.40;;
45932;SDS011;51011;46.790;17.184;2022-07-25T01:05:22;6.60;;;6.00;;
45932;SDS011;51011;46.790;17.184;2022-07-25T01:07:48;6.22;;;5.63;;
45932;SDS011;51011;46.790;17.184;2022-07-25T01:10:14;6.53;;;5.93;;
45932;SDS011;51011;46.790;17.184;2022-07-25T01:12:47;6.22;;;5.53;;
45932;SDS011;51011;46.790;17.184;2022-07-25T01:15:17;7.25;;;5.35;;
45932;SDS011;51011;46.790;17.184;2022-07-25T01:17:43;7.20;;;6.13;;
45932;SDS011;51011;46.790;17.184;2022-07-25T01:20:16;6.57;;;5.93;;
45932;SDS011;51011;46.790;17.184;2022-07-25T01:22:45;6.28;;;5.68;;
45932;SDS011;51011;46.790;17.184;2022-07-25T01:25:11;6.50;;;5.90;;
45932;SDS011;51011;46.790;17.184;2022-07-25T01:27:38;7.38;;;6.32;;
45932;SDS011;51011;46.790;17.184;2022-07-25T01:30:04;6.50;;;5.90;;
45932;SDS011;51011;46.790;17.184;2022-07-25T01:32:31;6.60;;;5.97;;
45932;SDS011;51011;46.790;17.184;2022-07-25T01:34:57;7.03;;;6.40;;
45932;SDS011;51011;46.790;17.184;2022-07-25T01:37:22;6.50;;;5.90;;
45932;SDS011;51011;46.790;17.184;2022-07-25T01:39:48;7.55;;;6.15;;
45932;SDS011;51011;46.790;17.184;2022-07-25T01:42:14;7.00;;;6.32;;
45932;SDS011;51011;46.790;17.184;2022-07-25T01:44:39;6.40;;;5.72;;
45932;SDS011;51011;46.790;17.184;2022-07-25T01:47:05;6.72;;;6.03;;
45932;SDS011;51011;46.790;17.184;2022-07-25T01:49:30;6.78;;;6.07;;
45932;SDS011;51011;46.790;17.184;2022-07-25T01:51:56;6.20;;;5.60;;
45932;SDS011;51011;46.790;17.184;2022-07-25T01:54:21;7.22;;;6.20;;
45932;SDS011;51011;46.790;17.184;2022-07-25T01:56:47;6.60;;;6.00;;
45932;SDS011;51011;46.790;17.184;2022-07-25T01:59:12;8.13;;;6.20;;
45932;SDS011;51011;46.790;17.184;2022-07-25T02:01:39;6.93;;;6.22;;
45932;SDS011;51011;46.790;17.184;2022-07-25T02:04:04;6.78;;;5.78;;
45932;SDS011;51011;46.790;17.184;2022-07-25T02:06:30;6.50;;;5.90;;
45932;SDS011;51011;46.790;17.184;2022-07-25T02:08:55;6.25;;;5.65;;
45932;SDS011;51011;46.790;17.184;2022-07-25T02:11:21;6.25;;;5.60;;
45932;SDS011;51011;46.790;17.184;2022-07-25T02:13:47;6.65;;;5.75;;
45932;SDS011;51011;46.790;17.184;2022-07-25T02:16:12;7.40;;;5.93;;
45932;SDS011;51011;46.790;17.184;2022-07-25T02:18:38;6.70;;;6.07;;
45932;SDS011;51011;46.790;17.184;2022-07-25T02:21:03;5.93;;;5.40;;
45932;SDS011;51011;46.790;17.184;2022-07-25T02:23:32;7.05;;;6.35;;
45932;SDS011;51011;46.790;17.184;2022-07-25T02:25:58;6.80;;;6.10;;
45932;SDS011;51011;46.790;17.184;2022-07-25T02:28:23;6.38;;;5.78;;
45932;SDS011;51011;46.790;17.184;2022-07-25T02:30:49;9.02;;;6.22;;
45932;SDS011;51011;46.790;17.184;2022-07-25T02:33:14;6.70;;;6.00;;
45932;SDS011;51011;46.790;17.184;2022-07-25T02:35:40;6.65;;;6.05;;
45932;SDS011;51011;46.790;17.184;2022-07-25T02:38:06;7.97;;;6.75;;
45932;SDS011;51011;46.790;17.184;2022-07-25T02:40:31;6.50;;;5.90;;
45932;SDS011;51011;46.790;17.184;2022-07-25T02:42:57;6.68;;;6.07;;
45932;SDS011;51011;46.790;17.184;2022-07-25T02:45:22;9.50;;;6.35;;
45932;SDS011;51011;46.790;17.184;2022-07-25T02:47:48;6.82;;;6.13;;
45932;SDS011;51011;46.790;17.184;2022-07-25T02:50:14;6.82;;;6.05;;
45932;SDS011;51011;46.790;17.184;2022-07-25T02:52:39;6.72;;;6.00;;
45932;SDS011;51011;46.790;17.184;2022-07-25T02:55:05;6.57;;;5.97;;
45932;SDS011;51011;46.790;17.184;2022-07-25T02:57:31;6.72;;;6.10;;
45932;SDS011;51011;46.790;17.184;2022-07-25T02:59:56;6.35;;;5.75;;
45932;SDS011;51011;46.790;17.184;2022-07-25T03:02:22;9.18;;;6.07;;
45932;SDS011;51011;46.790;17.184;2022-07-25T03:04:47;7.13;;;6.10;;
45932;SDS011;51011;46.790;17.184;2022-07-25T03:07:13;7.05;;;5.65;;
45932;SDS011;51011;46.790;17.184;2022-07-25T03:09:38;6.35;;;5.75;;
45932;SDS011;51011;46.790;17.184;2022-07-25T03:12:04;7.05;;;5.57;;
45932;SDS011;51011;46.790;17.184;2022-07-25T03:14:30;7.25;;;5.82;;
45932;SDS011;51011;46.790;17.184;2022-07-25T03:16:55;8.48;;;5.50;;
45932;SDS011;51011;46.790;17.184;2022-07-25T03:19:21;6.20;;;5.40;;
45932;SDS011;51011;46.790;17.184;2022-07-25T03:21:46;6.75;;;6.13;;
45932;SDS011;51011;46.790;17.184;2022-07-25T03:24:12;6.43;;;5.38;;
45932;SDS011;51011;46.790;17.184;2022-07-25T03:26:38;6.30;;;5.70;;
45932;SDS011;51011;46.790;17.184;2022-07-25T03:29:04;7.75;;;6.30;;
45932;SDS011;51011;46.790;17.184;2022-07-25T03:31:30;6.78;;;5.93;;
45932;SDS011;51011;46.790;17.184;2022-07-25T03:33:56;6.57;;;5.82;;
45932;SDS011;51011;46.790;17.184;2022-07-25T03:36:21;6.03;;;5.43;;
45932;SDS011;51011;46.790;17.184;2022-07-25T03:38:47;7.15;;;5.70;;
45932;SDS011;51011;46.790;17.184;2022-07-25T03:41:12;8.70;;;6.00;;
45932;SDS011;51011;46.790;17.184;2022-07-25T03:43:38;6.95;;;6.25;;
45932;SDS011;51011;46.790;17.184;2022-07-25T03:46:03;7.80;;;6.10;;
45932;SDS011;51011;46.790;17.184;2022-07-25T03:48:29;9.13;;;6.38;;
45932;SDS011;51011;46.790;17.184;2022-07-25T03:50:55;7.18;;;6.20;;
45932;SDS011;51011;46.790;17.184;2022-07-25T03:53:21;8.75;;;6.53;;
45932;SDS011;51011;46.790;17.184;2022-07-25T03:55:46;8.75;;;6.68;;
45932;SDS011;51011;46.790;17.184;2022-07-25T03:58:12;7.07;;;6.38;;
45932;SDS011;51011;46.790;17.184;2022-07-25T04:00:38;6.80;;;5.93;;
45932;SDS011;51011;46.790;17.184;2022-07-25T04:03:03;7.25;;;6.53;;
45932;SDS011;51011;46.790;17.184;2022-07-25T04:05:29;8.40;;;6.30;;
45932;SDS011;51011;46.790;17.184;2022-07-25T04:07:54;7.85;;;6.30;;
45932;SDS011;51011;46.790;17.184;2022-07-25T04:10:20;9.95;;;6.45;;
45932;SDS011;51011;46.790;17.184;2022-07-25T04:12:46;7.72;;;6.38;;
45932;SDS011;51011;46.790;17.184;2022-07-25T04:15:11;6.65;;;5.95;;
45932;SDS011;51011;46.790;17.184;2022-07-25T04:17:39;7.10;;;6.50;;
45932;SDS011;51011;46.790;17.184;2022-07-25T04:20:05;8.13;;;6.30;;
45932;SDS011;51011;46.790;17.184;2022-07-25T04:22:31;7.53;;;6.10;;
45932;SDS011;51011;46.790;17.184;2022-07-25T04:24:56;8.43;;;6.22;;
45932;SDS011;51011;46.790;17.184;2022-07-25T04:27:22;7.45;;;6.63;;
45932;SDS011;51011;46.790;17.184;2022-07-25T04:29:47;9.60;;;6.88;;
45932;SDS011;51011;46.790;17.184;2022-07-25T04:32:13;7.07;;;6.38;;
45932;SDS011;51011;46.790;17.184;2022-07-25T04:34:41;7.68;;;6.88;;
45932;SDS011;51011;46.790;17.184;2022-07-25T04:37:08;7.38;;;6.68;;
45932;SDS011;51011;46.790;17.184;2022-07-25T04:39:33;7.55;;;6.65;;
45932;SDS011;51011;46.790;17.184;2022-07-25T04:41:58;8.32;;;6.80;;
45932;SDS011;51011;46.790;17.184;2022-07-25T04:44:24;7.75;;;6.70;;
45932;SDS011;51011;46.790;17.184;2022-07-25T04:46:49;7.30;;;6.60;;
45932;SDS011;51011;46.790;17.184;2022-07-25T04:49:15;8.13;;;7.30;;
45932;SDS011;51011;46.790;17.184;2022-07-25T04:51:41;7.30;;;6.60;;
45932;SDS011;51011;46.790;17.184;2022-07-25T04:54:06;9.80;;;6.90;;
45932;SDS011;51011;46.790;17.184;2022-07-25T04:56:33;11.02;;;7.53;;
45932;SDS011;51011;46.790;17.184;2022-07-25T04:58:59;10.88;;;7.22;;
45932;SDS011;51011;46.790;17.184;2022-07-25T05:01:24;9.43;;;6.95;;
45932;SDS011;51011;46.790;17.184;2022-07-25T05:03:50;8.82;;;7.07;;
45932;SDS011;51011;46.790;17.184;2022-07-25T05:06:16;9.07;;;7.10;;
45932;SDS011;51011;46.790;17.184;2022-07-25T05:08:42;9.20;;;6.82;;
45932;SDS011;51011;46.790;17.184;2022-07-25T05:11:08;8.82;;;6.28;;
45932;SDS011;51011;46.790;17.184;2022-07-25T05:13:34;11.55;;;7.35;;
45932;SDS011;51011;46.790;17.184;2022-07-25T05:15:59;7.70;;;6.90;;
45932;SDS011;51011;46.790;17.184;2022-07-25T05:18:25;8.80;;;6.95;;
45932;SDS011;51011;46.790;17.184;2022-07-25T05:20:50;8.07;;;7.28;;
45932;SDS011;51011;46.790;17.184;2022-07-25T05:23:16;9.45;;;7.65;;
45932;SDS011;51011;46.790;17.184;2022-07-25T05:25:41;9.35;;;6.82;;
45932;SDS011;51011;46.790;17.184;2022-07-25T05:28:07;7.30;;;6.40;;
45932;SDS011;51011;46.790;17.184;2022-07-25T05:30:32;8.80;;;7.05;;
45932;SDS011;51011;46.790;17.184;2022-07-25T05:32:58;7.32;;;6.63;;
45932;SDS011;51011;46.790;17.184;2022-07-25T05:35:23;7.85;;;6.30;;
45932;SDS011;51011;46.790;17.184;2022-07-25T05:37:49;9.07;;;6.65;;
45932;SDS011;51011;46.790;17.184;2022-07-25T05:40:14;7.13;;;6.40;;
45932;SDS011;51011;46.790;17.184;2022-07-25T05:42:40;7.88;;;6.88;;
45932;SDS011;51011;46.790;17.184;2022-07-25T05:45:06;11.73;;;7.60;;
45932;SDS011;51011;46.790;17.184;2022-07-25T05:47:31;10.48;;;7.55;;
45932;SDS011;51011;46.790;17.184;2022-07-25T05:49:57;11.77;;;7.80;;
45932;SDS011;51011;46.790;17.184;2022-07-25T05:52:23;8.68;;;6.50;;
45932;SDS011;51011;46.790;17.184;2022-07-25T05:54:48;14.63;;;7.28;;
45932;SDS011;51011;46.790;17.184;2022-07-25T05:57:14;10.15;;;6.65;;
45932;SDS011;51011;46.790;17.184;2022-07-25T05:59:39;7.75;;;6.43;;
45932;SDS011;51011;46.790;17.184;2022-07-25T06:02:07;8.45;;;6.55;;
45932;SDS011;51011;46.790;17.184;2022-07-25T06:04:32;8.55;;;6.55;;
45932;SDS011;51011;46.790;17.184;2022-07-25T06:06:58;7.95;;;6.60;;
45932;SDS011;51011;46.790;17.184;2022-07-25T06:09:23;7.32;;;6.55;;
45932;SDS011;51011;46.790;17.184;2022-07-25T06:11:49;10.93;;;7.07;;
45932;SDS011;51011;46.790;17.184;2022-07-25T06:14:15;10.05;;;7.03;;
45932;SDS011;51011;46.790;17.184;2022-07-25T06:16:40;7.93;;;7.13;;
45932;SDS011;51011;46.790;17.184;2022-07-25T06:19:06;8.07;;;6.65;;
45932;SDS011;51011;46.790;17.184;2022-07-25T06:21:32;7.35;;;6.45;;
45932;SDS011;51011;46.790;17.184;2022-07-25T06:23:57;7.80;;;7.03;;
45932;SDS011;51011;46.790;17.184;2022-07-25T06:26:23;8.00;;;6.13;;
45932;SDS011;51011;46.790;17.184;2022-07-25T06:28:49;8.05;;;6.70;;
45932;SDS011;51011;46.790;17.184;2022-07-25T06:31:15;8.68;;;6.38;;
45932;SDS011;51011;46.790;17.184;2022-07-25T06:33:41;6.90;;;6.20;;
45932;SDS011;51011;46.790;17.184;2022-07-25T06:36:07;8.07;;;6.70;;
45932;SDS011;51011;46.790;17.184;2022-07-25T06:38:32;9.93;;;6.60;;
45932;SDS011;51011;46.790;17.184;2022-07-25T06:40:58;7.22;;;6.53;;
45932;SDS011;51011;46.790;17.184;2022-07-25T06:43:24;7.15;;;6.25;;
45932;SDS011;51011;46.790;17.184;2022-07-25T06:45:50;8.13;;;6.10;;
45932;SDS011;51011;46.790;17.184;2022-07-25T06:48:15;7.40;;;5.97;;
45932;SDS011;51011;46.790;17.184;2022-07-25T06:50:41;10.57;;;6.22;;
45932;SDS011;51011;46.790;17.184;2022-07-25T06:53:07;8.80;;;6.18;;
45932;SDS011;51011;46.790;17.184;2022-07-25T06:55:33;6.70;;;6.10;;
45932;SDS011;51011;46.790;17.184;2022-07-25T06:57:58;6.38;;;5.78;;
45932;SDS011;51011;46.790;17.184;2022-07-25T07:00:24;8.80;;;6.68;;
45932;SDS011;51011;46.790;17.184;2022-07-25T07:02:56;9.63;;;6.63;;
45932;SDS011;51011;46.790;17.184;2022-07-25T07:05:26;8.18;;;5.88;;
45932;SDS011;51011;46.790;17.184;2022-07-25T07:07:54;8.95;;;6.22;;
45932;SDS011;51011;46.790;17.184;2022-07-25T07:10:20;9.25;;;6.40;;
45932;SDS011;51011;46.790;17.184;2022-07-25T07:12:46;6.40;;;5.80;;
45932;SDS011;51011;46.790;17.184;2022-07-25T07:15:12;10.30;;;6.38;;
45932;SDS011;51011;46.790;17.184;2022-07-25T07:17:37;8.88;;;5.82;;
45932;SDS011;51011;46.790;17.184;2022-07-25T07:20:04;7.45;;;5.97;;
45932;SDS011;51011;46.790;17.184;2022-07-25T07:22:30;6.30;;;5.70;;
45932;SDS011;51011;46.790;17.184;2022-07-25T07:24:56;6.40;;;5.80;;
45932;SDS011;51011;46.790;17.184;2022-07-25T07:27:21;6.88;;;6.10;;
45932;SDS011;51011;46.790;17.184;2022-07-25T07:29:53;7.80;;;6.05;;
45932;SDS011;51011;46.790;17.184;2022-07-25T07:32:18;9.95;;;6.40;;
45932;SDS011;51011;46.790;17.184;2022-07-25T07:34:44;10.20;;;6.10;;
45932;SDS011;51011;46.790;17.184;2022-07-25T07:37:10;6.50;;;5.85;;
45932;SDS011;51011;46.790;17.184;2022-07-25T07:39:35;8.80;;;5.72;;
45932;SDS011;51011;46.790;17.184;2022-07-25T07:42:01;6.35;;;5.70;;
45932;SDS011;51011;46.790;17.184;2022-07-25T07:44:27;6.10;;;5.50;;
45932;SDS011;51011;46.790;17.184;2022-07-25T07:46:52;7.57;;;5.80;;
45932;SDS011;51011;46.790;17.184;2022-07-25T07:49:18;9.18;;;5.80;;
45932;SDS011;51011;46.790;17.184;2022-07-25T07:51:44;7.97;;;6.03;;
45932;SDS011;51011;46.790;17.184;2022-07-25T07:54:09;6.43;;;5.80;;
45932;SDS011;51011;46.790;17.184;2022-07-25T07:56:56;6.97;;;5.63;;
45932;SDS011;51011;46.790;17.184;2022-07-25T07:59:22;6.80;;;6.20;;
45932;SDS011;51011;46.790;17.184;2022-07-25T08:01:47;7.57;;;5.97;;
45932;SDS011;51011;46.790;17.184;2022-07-25T08:04:12;12.43;;;6.40;;
45932;SDS011;51011;46.790;17.184;2022-07-25T08:06:39;7.50;;;6.00;;
45932;SDS011;51011;46.790;17.184;2022-07-25T08:09:07;6.70;;;6.00;;
45932;SDS011;51011;46.790;17.184;2022-07-25T08:11:32;8.35;;;5.95;;
45932;SDS011;51011;46.790;17.184;2022-07-25T08:13:59;7.72;;;5.55;;
45932;SDS011;51011;46.790;17.184;2022-07-25T08:16:25;7.30;;;6.13;;
45932;SDS011;51011;46.790;17.184;2022-07-25T08:18:54;6.55;;;5.82;;
45932;SDS011;51011;46.790;17.184;2022-07-25T08:21:20;6.88;;;6.13;;
45932;SDS011;51011;46.790;17.184;2022-07-25T08:23:45;7.80;;;5.68;;
45932;SDS011;51011;46.790;17.184;2022-07-25T08:26:14;10.18;;;6.28;;
45932;SDS011;51011;46.790;17.184;2022-07-25T08:28:40;8.02;;;6.20;;
45932;SDS011;51011;46.790;17.184;2022-07-25T08:31:06;10.27;;;6.47;;
45932;SDS011;51011;46.790;17.184;2022-07-25T08:33:32;8.50;;;6.15;;
45932;SDS011;51011;46.790;17.184;2022-07-25T08:35:58;6.88;;;6.20;;
45932;SDS011;51011;46.790;17.184;2022-07-25T08:38:24;10.50;;;6.40;;
45932;SDS011;51011;46.790;17.184;2022-07-25T08:40:52;8.20;;;6.15;;
45932;SDS011;51011;46.790;17.184;2022-07-25T08:43:18;9.55;;;6.00;;
45932;SDS011;51011;46.790;17.184;2022-07-25T08:45:45;6.88;;;6.18;;
45932;SDS011;51011;46.790;17.184;2022-07-25T08:48:12;6.70;;;6.00;;
45932;SDS011;51011;46.790;17.184;2022-07-25T08:50:38;11.50;;;6.03;;
45932;SDS011;51011;46.790;17.184;2022-07-25T08:53:04;7.80;;;6.40;;
45932;SDS011;51011;46.790;17.184;2022-07-25T08:55:30;8.63;;;6.20;;
45932;SDS011;51011;46.790;17.184;2022-07-25T08:57:56;8.07;;;6.30;;
45932;SDS011;51011;46.790;17.184;2022-07-25T09:00:22;10.20;;;6.47;;
45932;SDS011;51011;46.790;17.184;2022-07-25T09:02:54;12.30;;;6.30;;
45932;SDS011;51011;46.790;17.184;2022-07-25T09:05:21;7.57;;;6.30;;
45932;SDS011;51011;46.790;17.184;2022-07-25T09:07:48;6.70;;;5.97;;
45932;SDS011;51011;46.790;17.184;2022-07-25T09:10:15;6.78;;;6.10;;
45932;SDS011;51011;46.790;17.184;2022-07-25T09:15:21;9.85;;;6.47;;
45932;SDS011;51011;46.790;17.184;2022-07-25T09:17:49;10.13;;;5.90;;
45932;SDS011;51011;46.790;17.184;2022-07-25T09:20:15;12.32;;;6.55;;
45932;SDS011;51011;46.790;17.184;2022-07-25T09:22:44;7.88;;;6.03;;
45932;SDS011;51011;46.790;17.184;2022-07-25T09:33:03;7.45;;;5.85;;
45932;SDS011;51011;46.790;17.184;2022-07-25T09:35:32;7.57;;;5.75;;
45932;SDS011;51011;46.790;17.184;2022-07-25T09:38:09;6.72;;;6.03;;
45932;SDS011;51011;46.790;17.184;2022-07-25T09:40:40;7.05;;;5.45;;
45932;SDS011;51011;46.790;17.184;2022-07-25T09:43:06;6.80;;;6.07;;
45932;SDS011;51011;46.790;17.184;2022-07-25T09:45:32;8.10;;;5.72;;
45932;SDS011;51011;46.790;17.184;2022-07-25T09:48:01;8.68;;;6.18;;
45932;SDS011;51011;46.790;17.184;2022-07-25T09:50:29;6.38;;;5.78;;
45932;SDS011;51011;46.790;17.184;2022-07-25T09:52:58;7.78;;;6.15;;
45932;SDS011;51011;46.790;17.184;2022-07-25T09:55:27;7.57;;;5.70;;
45932;SDS011;51011;46.790;17.184;2022-07-25T09:57:55;6.95;;;6.18;;
45932;SDS011;51011;46.790;17.184;2022-07-25T10:00:22;7.93;;;5.82;;
45932;SDS011;51011;46.790;17.184;2022-07-25T10:08:24;6.88;;;5.70;;
45932;SDS011;51011;46.790;17.184;2022-07-25T10:10:50;6.93;;;6.07;;
45932;SDS011;51011;46.790;17.184;2022-07-25T10:13:16;8.50;;;5.88;;
45932;SDS011;51011;46.790;17.184;2022-07-25T10:15:53;7.95;;;5.45;;
45932;SDS011;51011;46.790;17.184;2022-07-25T10:18:20;9.38;;;6.03;;
45932;SDS011;51011;46.790;17.184;2022-07-25T10:20:49;7.38;;;5.80;;
45932;SDS011;51011;46.790;17.184;2022-07-25T10:23:20;7.55;;;6.00;;
45932;SDS011;51011;46.790;17.184;2022-07-25T10:25:46;7.43;;;6.07;;
45932;SDS011;51011;46.790;17.184;2022-07-25T10:28:15;6.07;;;5.47;;
45932;SDS011;51011;46.790;17.184;2022-07-25T10:30:42;7.00;;;6.00;;
45932;SDS011;51011;46.790;17.184;2022-07-25T10:33:13;6.80;;;5.75;;
45932;SDS011;51011;46.790;17.184;2022-07-25T10:35:40;6.35;;;5.75;;
45932;SDS011;51011;46.790;17.184;2022-07-25T10:38:06;7.28;;;6.03;;
45932;SDS011;51011;46.790;17.184;2022-07-25T10:40:39;10.98;;;6.30;;
45932;SDS011;51011;46.790;17.184;2022-07-25T10:43:10;6.10;;;5.57;;
45932;SDS011;51011;46.790;17.184;2022-07-25T10:48:20;17.08;;;6.13;;
45932;SDS011;51011;46.790;17.184;2022-07-25T10:50:47;9.52;;;5.82;;
45932;SDS011;51011;46.790;17.184;2022-07-25T10:53:14;6.35;;;5.75;;
45932;SDS011;51011;46.790;17.184;2022-07-25T10:55:40;7.05;;;6.13;;
45932;SDS011;51011;46.790;17.184;2022-07-25T10:58:08;10.88;;;6.00;;
45932;SDS011;51011;46.790;17.184;2022-07-25T11:00:34;10.18;;;5.95;;
45932;SDS011;51011;46.790;17.184;2022-07-25T11:03:07;6.95;;;5.50;;
45932;SDS011;51011;46.790;17.184;2022-07-25T11:05:42;8.95;;;5.95;;
45932;SDS011;51011;46.790;17.184;2022-07-25T11:08:10;7.18;;;6.05;;
45932;SDS011;51011;46.790;17.184;2022-07-25T11:10:36;6.47;;;5.30;;
45932;SDS011;51011;46.790;17.184;2022-07-25T11:13:02;6.75;;;5.40;;
45932;SDS011;51011;46.790;17.184;2022-07-25T11:15:27;6.25;;;5.70;;
45932;SDS011;51011;46.790;17.184;2022-07-25T11:17:53;5.65;;;5.13;;
45932;SDS011;51011;46.790;17.184;2022-07-25T11:20:19;6.57;;;5.95;;
45932;SDS011;51011;46.790;17.184;2022-07-25T11:22:52;8.48;;;5.60;;
45932;SDS011;51011;46.790;17.184;2022-07-25T11:25:19;11.18;;;6.03;;
45932;SDS011;51011;46.790;17.184;2022-07-25T11:27:57;7.78;;;5.43;;
45932;SDS011;51011;46.790;17.184;2022-07-25T11:30:24;6.63;;;5.60;;
45932;SDS011;51011;46.790;17.184;2022-07-25T11:32:52;8.07;;;6.00;;
45932;SDS011;51011;46.790;17.184;2022-07-25T11:35:24;7.57;;;5.72;;
45932;SDS011;51011;46.790;17.184;2022-07-25T11:37:58;6.25;;;5.70;;
45932;SDS011;51011;46.790;17.184;2022-07-25T11:40:25;7.72;;;5.88;;
45932;SDS011;51011;46.790;17.184;2022-07-25T11:42:52;7.22;;;6.00;;
45932;SDS011;51011;46.790;17.184;2022-07-25T11:45:26;6.70;;;5.97;;
45932;SDS011;51011;46.790;17.184;2022-07-25T11:48:05;6.65;;;5.68;;
45932;SDS011;51011;46.790;17.184;2022-07-25T11:50:34;6.10;;;5.57;;
45932;SDS011;51011;46.790;17.184;2022-07-25T11:53:02;8.50;;;5.68;;
45932;SDS011;51011;46.790;17.184;2022-07-25T11:55:31;6.35;;;5.75;;
45932;SDS011;51011;46.790;17.184;2022-07-25T11:57:59;6.68;;;5.97;;
45932;SDS011;51011;46.790;17.184;2022-07-25T12:00:26;6.38;;;5.78;;
45932;SDS011;51011;46.790;17.184;2022-07-25T12:02:52;6.07;;;5.47;;
45932;SDS011;51011;46.790;17.184;2022-07-25T12:05:18;7.45;;;5.63;;
45932;SDS011;51011;46.790;17.184;2022-07-25T12:07:55;7.25;;;6.55;;
45932;SDS011;51011;46.790;17.184;2022-07-25T12:10:22;7.70;;;6.00;;
45932;SDS011;51011;46.790;17.184;2022-07-25T12:12:49;6.65;;;6.05;;
45932;SDS011;51011;46.790;17.184;2022-07-25T12:15:20;6.85;;;6.03;;
45932;SDS011;51011;46.790;17.184;2022-07-25T12:17:48;6.88;;;6.00;;
45932;SDS011;51011;46.790;17.184;2022-07-25T12:20:15;7.32;;;6.55;;
45932;SDS011;51011;46.790;17.184;2022-07-25T12:22:46;7.20;;;6.50;;
45932;SDS011;51011;46.790;17.184;2022-07-25T12:25:12;6.47;;;5.85;;
45932;SDS011;51011;46.790;17.184;2022-07-25T12:27:38;9.75;;;6.60;;
45932;SDS011;51011;46.790;17.184;2022-07-25T12:30:04;7.00;;;6.28;;
45932;SDS011;51011;46.790;17.184;2022-07-25T12:32:30;8.23;;;6.85;;
45932;SDS011;51011;46.790;17.184;2022-07-25T12:34:56;7.10;;;6.40;;
45932;SDS011;51011;46.790;17.184;2022-07-25T12:37:21;7.35;;;6.13;;
45932;SDS011;51011;46.790;17.184;2022-07-25T12:39:47;7.60;;;6.60;;
45932;SDS011;51011;46.790;17.184;2022-07-25T12:42:13;8.40;;;6.53;;
45932;SDS011;51011;46.790;17.184;2022-07-25T12:44:38;7.28;;;6.57;;
45932;SDS011;51011;46.790;17.184;2022-07-25T12:47:04;7.10;;;6.40;;
45932;SDS011;51011;46.790;17.184;2022-07-25T12:49:29;6.88;;;6.10;;
45932;SDS011;51011;46.790;17.184;2022-07-25T12:51:55;7.35;;;5.97;;
45932;SDS011;51011;46.790;17.184;2022-07-25T12:54:21;7.65;;;6.70;;
45932;SDS011;51011;46.790;17.184;2022-07-25T12:56:46;7.05;;;6.32;;
45932;SDS011;51011;46.790;17.184;2022-07-25T12:59:12;7.93;;;6.50;;
45932;SDS011;51011;46.790;17.184;2022-07-25T13:01:37;7.35;;;6.68;;
45932;SDS011;51011;46.790;17.184;2022-07-25T13:04:03;6.95;;;6.28;;
45932;SDS011;51011;46.790;17.184;2022-07-25T13:06:31;7.97;;;7.00;;
45932;SDS011;51011;46.790;17.184;2022-07-25T13:08:57;7.50;;;6.80;;
45932;SDS011;51011;46.790;17.184;2022-07-25T13:11:23;7.32;;;6.50;;
45932;SDS011;51011;46.790;17.184;2022-07-25T13:13:49;8.68;;;7.10;;
45932;SDS011;51011;46.790;17.184;2022-07-25T13:16:14;7.50;;;6.80;;
45932;SDS011;51011;46.790;17.184;2022-07-25T13:18:40;7.82;;;7.03;;
45932;SDS011;51011;46.790;17.184;2022-07-25T13:21:05;7.75;;;7.05;;
45932;SDS011;51011;46.790;17.184;2022-07-25T13:23:31;7.38;;;6.78;;
45932;SDS011;51011;46.790;17.184;2022-07-25T13:25:57;7.60;;;6.40;;
45932;SDS011;51011;46.790;17.184;2022-07-25T13:28:24;7.63;;;7.00;;
45932;SDS011;51011;46.790;17.184;2022-07-25T13:30:50;7.13;;;6.43;;
45932;SDS011;51011;46.790;17.184;2022-07-25T13:33:15;7.63;;;6.80;;
45932;SDS011;51011;46.790;17.184;2022-07-25T13:35:41;7.53;;;6.72;;
45932;SDS011;51011;46.790;17.184;2022-07-25T13:38:09;8.15;;;7.35;;
45932;SDS011;51011;46.790;17.184;2022-07-25T13:40:35;7.68;;;6.88;;
45932;SDS011;51011;46.790;17.184;2022-07-25T13:43:06;7.50;;;6.90;;
45932;SDS011;51011;46.790;17.184;2022-07-25T13:45:33;7.63;;;7.00;;
45932;SDS011;51011;46.790;17.184;2022-07-25T13:47:58;6.80;;;6.15;;
45932;SDS011;51011;46.790;17.184;2022-07-25T13:50:24;8.23;;;6.57;;
45932;SDS011;51011;46.790;17.184;2022-07-25T13:52:50;7.93;;;7.13;;
45932;SDS011;51011;46.790;17.184;2022-07-25T13:55:15;7.63;;;6.93;;
45932;SDS011;51011;46.790;17.184;2022-07-25T13:57:43;7.03;;;6.32;;
45932;SDS011;51011;46.790;17.184;2022-07-25T14:00:09;7.43;;;6.55;;
45932;SDS011;51011;46.790;17.184;2022-07-25T14:02:36;7.00;;;6.40;;
45932;SDS011;51011;46.790;17.184;2022-07-25T14:05:03;7.53;;;6.82;;
45932;SDS011;51011;46.790;17.184;2022-07-25T14:07:29;7.57;;;6.88;;
45932;SDS011;51011;46.790;17.184;2022-07-25T14:09:54;7.60;;;6.78;;
45932;SDS011;51011;46.790;17.184;2022-07-25T14:12:22;7.38;;;6.78;;
45932;SDS011;51011;46.790;17.184;2022-07-25T14:14:48;7.50;;;6.80;;
45932;SDS011;51011;46.790;17.184;2022-07-25T14:17:14;7.93;;;7.25;;
45932;SDS011;51011;46.790;17.184;2022-07-25T14:19:39;8.18;;;7.35;;
45932;SDS011;51011;46.790;17.184;2022-07-25T14:22:05;7.68;;;6.97;;
45932;SDS011;51011;46.790;17.184;2022-07-25T14:24:30;7.53;;;6.82;;
45932;SDS011;51011;46.790;17.184;2022-07-25T14:26:56;7.45;;;6.47;;
45932;SDS011;51011;46.790;17.184;2022-07-25T14:29:22;7.93;;;6.93;;
45932;SDS011;51011;46.790;17.184;2022-07-25T14:31:47;7.70;;;6.90;;
45932;SDS011;51011;46.790;17.184;2022-07-25T14:34:13;7.95;;;7.25;;
45932;SDS011;51011;46.790;17.184;2022-07-25T14:36:40;7.85;;;6.95;;
45932;SDS011;51011;46.790;17.184;2022-07-25T14:39:05;7.70;;;7.00;;
45932;SDS011;51011;46.790;17.184;2022-07-25T14:41:31;7.20;;;6.53;;
45932;SDS011;51011;46.790;17.184;2022-07-25T14:43:57;7.68;;;6.97;;
45932;SDS011;51011;46.790;17.184;2022-07-25T14:46:23;7.47;;;6.88;;
45932;SDS011;51011;46.790;17.184;2022-07-25T14:48:49;7.70;;;7.00;;